Time;durP1;ratioP1;P1;durP2;ratioP2;P2;SDS_P1;SDS_P2;PMS_P1;PMS_P2;Temp;Humidity;BMP_temperature;BMP_pressure;BME280_temperature;BME280_humidity;BME280_pressure;Samples;Min_cycle;Max_cycle;Signal;HPM_P1;HPM_P2
2023/10/12 00:01:59;;;;;;;4.45;2.72;;;;;;;;;;4979953;28;20058;-77
2023/10/12 00:04:27;;;;;;;8.15;2.60;;;;;;;;;;4981738;28;20129;-77
2023/10/12 00:06:53;;;;;;;5.00;3.05;;;;;;;;;;4981783;28;20054;-77
2023/10/12 00:09:24;;;;;;;5.93;3.33;;;;;;;;;;4982557;28;20049;-77
2023/10/12 00:11:57;;;;;;;7.35;3.10;;;;;;;;;;4979969;28;20050;-77
2023/10/12 00:14:26;;;;;;;4.95;3.25;;;;;;;;;;4981455;28;20050;-77
2023/10/12 00:16:52;;;;;;;7.47;3.65;;;;;;;;;;4981510;28;20057;-77
2023/10/12 00:19:18;;;;;;;9.75;3.25;;;;;;;;;;4980729;28;20058;-77
2023/10/12 00:21:43;;;;;;;4.72;3.40;;;;;;;;;;4980278;28;20100;-77
2023/10/12 00:24:17;;;;;;;6.93;3.33;;;;;;;;;;4980955;28;20050;-77
2023/10/12 00:26:43;;;;;;;5.28;2.83;;;;;;;;;;4982554;28;20077;-77
2023/10/12 00:29:09;;;;;;;7.07;3.85;;;;;;;;;;4979922;28;20046;-77
2023/10/12 00:31:43;;;;;;;6.68;2.78;;;;;;;;;;4981318;28;20054;-78
2023/10/12 00:34:12;;;;;;;3.22;2.15;;;;;;;;;;4980312;28;20045;-76
2023/10/12 00:36:40;;;;;;;8.18;2.92;;;;;;;;;;4980654;28;20452;-78
2023/10/12 00:39:09;;;;;;;10.60;2.58;;;;;;;;;;4980965;28;20046;-78
2023/10/12 00:41:44;;;;;;;5.65;1.80;;;;;;;;;;4983005;28;20054;-78
2023/10/12 00:44:12;;;;;;;6.30;2.70;;;;;;;;;;4982330;28;20049;-79
2023/10/12 00:46:58;;;;;;;15.30;2.97;;;;;;;;;;4982207;28;20217;-78
2023/10/12 00:49:27;;;;;;;6.10;2.75;;;;;;;;;;4980750;28;20061;-79
2023/10/12 00:52:08;;;;;;;8.75;2.80;;;;;;;;;;4982066;28;20053;-79
2023/10/12 00:57:11;;;;;;;7.95;2.10;;;;;;;;;;4980113;28;20053;-78
2023/10/12 00:59:37;;;;;;;9.50;2.78;;;;;;;;;;4985876;28;20053;-77
2023/10/12 01:02:11;;;;;;;4.35;2.60;;;;;;;;;;4976399;28;20038;-77
2023/10/12 01:04:39;;;;;;;5.95;2.60;;;;;;;;;;4986067;28;20066;-77
2023/10/12 01:07:06;;;;;;;7.65;2.55;;;;;;;;;;4984657;28;20128;-78
2023/10/12 01:09:45;;;;;;;4.57;2.45;;;;;;;;;;4983692;28;20046;-78
2023/10/12 01:12:14;;;;;;;7.10;2.80;;;;;;;;;;4983888;28;20050;-78
2023/10/12 01:14:51;;;;;;;8.43;2.45;;;;;;;;;;4983544;28;20070;-78
2023/10/12 01:17:29;;;;;;;9.07;3.10;;;;;;;;;;4970216;28;20097;-78
2023/10/12 01:19:57;;;;;;;5.47;2.65;;;;;;;;;;4985451;28;20046;-78
2023/10/12 01:22:25;;;;;;;7.18;2.67;;;;;;;;;;4988239;28;20381;-78
2023/10/12 01:27:20;;;;;;;6.75;2.60;;;;;;;;;;4990459;28;20188;-77
2023/10/12 01:29:46;;;;;;;5.05;2.47;;;;;;;;;;4992906;28;20198;-78
2023/10/12 01:34:38;;;;;;;4.53;2.53;;;;;;;;;;4982694;28;20058;-78
2023/10/12 01:37:20;;;;;;;4.05;2.28;;;;;;;;;;4981764;28;20050;-78
2023/10/12 01:39:55;;;;;;;5.10;2.10;;;;;;;;;;4982742;28;20101;-78
2023/10/12 01:42:21;;;;;;;5.88;2.60;;;;;;;;;;4985792;28;20100;-78
2023/10/12 01:44:47;;;;;;;4.60;2.30;;;;;;;;;;4982626;28;20046;-78
2023/10/12 01:47:15;;;;;;;4.53;2.13;;;;;;;;;;4983770;28;20054;-78
2023/10/12 01:49:41;;;;;;;3.33;2.08;;;;;;;;;;4999714;28;20046;-78
2023/10/12 01:52:08;;;;;;;7.72;2.65;;;;;;;;;;4983539;28;20057;-78
2023/10/12 01:54:42;;;;;;;5.50;2.40;;;;;;;;;;4984280;28;20042;-78
2023/10/12 01:57:07;;;;;;;5.68;2.20;;;;;;;;;;4995628;28;20058;-78
2023/10/12 01:59:34;;;;;;;4.70;2.33;;;;;;;;;;4980231;28;20046;-78
2023/10/12 02:02:07;;;;;;;4.72;2.08;;;;;;;;;;4978785;28;20042;-78
2023/10/12 02:04:39;;;;;;;3.97;2.20;;;;;;;;;;4981003;28;20133;-78
2023/10/12 02:07:10;;;;;;;;;;;;;;;;;;4978928;28;20069;-79
2023/10/12 02:09:36;;;;;;;4.78;1.90;;;;;;;;;;4981123;28;19961;-77
2023/10/12 02:12:13;;;;;;;4.05;2.05;;;;;;;;;;4981397;28;20050;-79
2023/10/12 02:14:41;;;;;;;4.95;2.30;;;;;;;;;;4980821;28;20046;-78
2023/10/12 02:17:08;;;;;;;5.00;2.10;;;;;;;;;;4946787;28;20197;-77
2023/10/12 02:19:42;;;;;;;5.40;2.00;;;;;;;;;;4979532;28;20046;-76
2023/10/12 02:22:23;;;;;;;5.43;2.33;;;;;;;;;;4995354;28;20046;-77
2023/10/12 02:24:59;;;;;;;3.03;1.67;;;;;;;;;;4980265;28;20050;-77
2023/10/12 02:27:24;;;;;;;5.60;2.22;;;;;;;;;;4982288;28;20046;-77
2023/10/12 02:29:53;;;;;;;6.10;2.13;;;;;;;;;;4969471;28;20050;-77
2023/10/12 02:32:24;;;;;;;3.67;2.22;;;;;;;;;;4979504;28;20096;-77
2023/10/12 02:34:57;;;;;;;14.55;2.10;;;;;;;;;;4980161;28;20050;-78
2023/10/12 02:37:24;;;;;;;2.20;1.50;;;;;;;;;;4978598;28;20042;-78
2023/10/12 02:39:53;;;;;;;7.72;2.38;;;;;;;;;;4964181;28;20065;-78
2023/10/12 02:42:22;;;;;;;5.75;2.45;;;;;;;;;;4981046;28;20052;-78
2023/10/12 02:45:06;;;;;;;6.57;2.33;;;;;;;;;;4979850;28;20046;-77
2023/10/12 02:47:40;;;;;;;5.70;2.30;;;;;;;;;;4969614;28;20054;-77
2023/10/12 02:52:33;;;;;;;8.43;1.92;;;;;;;;;;4959100;28;20047;-77
2023/10/12 02:57:53;;;;;;;4.03;1.70;;;;;;;;;;4959561;28;20042;-77
2023/10/12 03:03:25;;;;;;;3.83;1.85;;;;;;;;;;4958166;28;20047;-77
2023/10/12 03:05:53;;;;;;;4.03;2.13;;;;;;;;;;4958460;28;20058;-77
2023/10/12 03:08:21;;;;;;;4.40;1.88;;;;;;;;;;4956459;28;20125;-77
2023/10/12 03:13:33;;;;;;;10.43;2.10;;;;;;;;;;4972438;28;20508;-76
2023/10/12 03:16:03;;;;;;;7.22;2.08;;;;;;;;;;4959610;28;20408;-76
2023/10/12 03:18:34;;;;;;;2.97;1.83;;;;;;;;;;4958895;28;20082;-76
2023/10/12 03:21:11;;;;;;;7.10;2.42;;;;;;;;;;4965915;28;20070;-77
2023/10/12 03:23:39;;;;;;;4.05;1.98;;;;;;;;;;4958759;28;20046;-77
2023/10/12 03:26:47;;;;;;;13.50;3.38;;;;;;;;;;4958213;28;20069;-77
2023/10/12 03:31:53;;;;;;;4.55;2.17;;;;;;;;;;4965830;28;20057;-76
2023/10/12 03:35:05;;;;;;;11.45;2.25;;;;;;;;;;4971606;28;20607;-77
2023/10/12 03:37:13;;;;;;;6.10;1.90;;;;;;;;;;4967433;28;20055;-76
2023/10/12 03:44:57;;;;;;;5.05;1.80;;;;;;;;;;4959434;28;20492;-77
2023/10/12 03:52:27;;;;;;;5.07;1.90;;;;;;;;;;4958314;28;20110;-76
2023/10/12 03:55:19;;;;;;;6.22;2.30;;;;;;;;;;4957170;28;20039;-77
2023/10/12 04:08:00;;;;;;;8.23;2.40;;;;;;;;;;4958280;28;20064;-77
2023/10/12 04:18:32;;;;;;;5.18;2.20;;;;;;;;;;4958401;28;20579;-77
2023/10/12 04:20:58;;;;;;;5.18;2.35;;;;;;;;;;4956351;28;20057;-76
2023/10/12 04:26:27;;;;;;;4.20;1.98;;;;;;;;;;4956644;28;20050;-77
2023/10/12 04:28:56;;;;;;;4.97;2.10;;;;;;;;;;4958513;28;20054;-77
2023/10/12 04:31:34;;;;;;;5.75;2.08;;;;;;;;;;4958600;28;20055;-77
2023/10/12 04:41:38;;;;;;;3.55;2.00;;;;;;;;;;4962573;28;20161;-77
2023/10/12 04:44:25;;;;;;;3.83;1.92;;;;;;;;;;4960524;28;20046;-77
2023/10/12 04:47:05;;;;;;;5.65;2.30;;;;;;;;;;4949112;28;20448;-77
2023/10/12 04:57:26;;;;;;;7.70;2.22;;;;;;;;;;4992128;28;20042;-77
2023/10/12 05:00:17;;;;;;;9.98;2.42;;;;;;;;;;4980518;28;20132;-76
2023/10/12 05:05:54;;;;;;;5.30;2.30;;;;;;;;;;4979597;28;20049;-77
2023/10/12 05:08:03;;;;;;;5.47;2.70;;;;;;;;;;4975881;28;20149;-78
2023/10/12 05:13:05;;;;;;;3.08;2.15;;;;;;;;;;4980060;28;20061;-77
2023/10/12 05:18:37;;;;;;;5.65;2.30;;;;;;;;;;4989321;28;20053;-75
2023/10/12 05:21:05;;;;;;;4.15;2.35;;;;;;;;;;4975312;28;20121;-75
2023/10/12 05:23:30;;;;;;;3.13;2.17;;;;;;;;;;4979159;28;20046;-75
2023/10/12 05:26:07;;;;;;;4.43;2.40;;;;;;;;;;4980189;28;20061;-75
2023/10/12 05:28:38;;;;;;;6.30;1.80;;;;;;;;;;4980523;28;20062;-75
2023/10/12 05:36:10;;;;;;;15.90;2.70;;;;;;;;;;4980448;28;20050;-75
2023/10/12 05:38:36;;;;;;;5.20;2.38;;;;;;;;;;4979299;28;20042;-75
2023/10/12 05:41:08;;;;;;;7.60;2.40;;;;;;;;;;4979760;28;20061;-75
2023/10/12 05:43:36;;;;;;;8.23;2.90;;;;;;;;;;4981339;28;20153;-77
2023/10/12 05:46:15;;;;;;;3.40;2.35;;;;;;;;;;4985377;28;20050;-76
2023/10/12 05:48:45;;;;;;;8.55;2.67;;;;;;;;;;4979927;28;20508;-76
2023/10/12 05:51:11;;;;;;;4.15;2.40;;;;;;;;;;4981732;28;20048;-77
2023/10/12 05:53:37;;;;;;;6.28;2.45;;;;;;;;;;4981944;28;20046;-77
2023/10/12 05:56:05;;;;;;;6.65;3.00;;;;;;;;;;4981614;28;20038;-77
2023/10/12 05:58:33;;;;;;;4.97;3.00;;;;;;;;;;4983375;28;20042;-77
2023/10/12 06:01:08;;;;;;;4.68;2.50;;;;;;;;;;4981982;28;20078;-78
2023/10/12 06:03:34;;;;;;;3.15;2.20;;;;;;;;;;4982283;28;20982;-78
2023/10/12 06:06:00;;;;;;;8.88;2.80;;;;;;;;;;4981804;28;20622;-78
2023/10/12 06:08:27;;;;;;;7.43;2.55;;;;;;;;;;4964350;28;20056;-77
2023/10/12 06:10:54;;;;;;;7.93;2.42;;;;;;;;;;4964126;28;20054;-77
2023/10/12 06:13:23;;;;;;;5.22;2.58;;;;;;;;;;4981335;28;20059;-79
2023/10/12 06:15:53;;;;;;;5.35;2.22;;;;;;;;;;4981087;28;20193;-76
2023/10/12 06:18:24;;;;;;;8.32;2.50;;;;;;;;;;4980956;28;20134;-76
2023/10/12 06:20:58;;;;;;;8.38;2.63;;;;;;;;;;4981599;28;20046;-76
2023/10/12 06:23:24;;;;;;;5.30;2.00;;;;;;;;;;4995234;28;20049;-76
2023/10/12 06:25:49;;;;;;;4.50;2.30;;;;;;;;;;4979656;28;20070;-77
2023/10/12 06:28:17;;;;;;;6.78;2.42;;;;;;;;;;4980545;28;20455;-77
2023/10/12 06:30:47;;;;;;;5.95;2.38;;;;;;;;;;4980143;28;20073;-78
2023/10/12 06:33:15;;;;;;;7.68;2.60;;;;;;;;;;4980156;28;20100;-76
2023/10/12 06:36:00;;;;;;;5.15;2.60;;;;;;;;;;4980428;28;20053;-75
2023/10/12 06:38:47;;;;;;;5.07;2.20;;;;;;;;;;4981202;28;20275;-76
2023/10/12 06:43:59;;;;;;;7.00;2.47;;;;;;;;;;4979973;28;20046;-78
2023/10/12 06:46:28;;;;;;;6.40;2.85;;;;;;;;;;4978522;28;20057;-78
2023/10/12 06:49:00;;;;;;;5.78;2.55;;;;;;;;;;4978055;28;20566;-78
2023/10/12 06:51:28;;;;;;;4.25;2.47;;;;;;;;;;4979579;28;20078;-77
2023/10/12 06:54:06;;;;;;;3.72;2.08;;;;;;;;;;4978427;28;20411;-77
2023/10/12 06:56:38;;;;;;;5.13;2.42;;;;;;;;;;4979739;28;20503;-78
2023/10/12 06:59:21;;;;;;;5.13;2.55;;;;;;;;;;4977903;28;20057;-78
2023/10/12 07:04:13;;;;;;;6.93;2.45;;;;;;;;;;4978864;28;20050;-77
2023/10/12 07:06:40;;;;;;;6.75;2.50;;;;;;;;;;4979507;28;20149;-78
2023/10/12 07:09:07;;;;;;;6.90;2.70;;;;;;;;;;4988886;28;20046;-76
2023/10/12 07:11:32;;;;;;;6.68;2.42;;;;;;;;;;4979497;28;20796;-74
2023/10/12 07:14:04;;;;;;;5.15;2.22;;;;;;;;;;4978577;28;20526;-75
2023/10/12 07:16:31;;;;;;;5.60;2.20;;;;;;;;;;4946787;28;20057;-77
2023/10/12 07:18:58;;;;;;;6.30;2.38;;;;;;;;;;4977138;28;20050;-75
2023/10/12 07:21:23;;;;;;;5.18;2.40;;;;;;;;;;4978554;28;20089;-75
2023/10/12 07:23:52;;;;;;;8.45;2.40;;;;;;;;;;4977860;28;20141;-74
2023/10/12 07:26:23;;;;;;;5.40;2.38;;;;;;;;;;4977346;28;20058;-74
2023/10/12 07:28:52;;;;;;;6.13;2.72;;;;;;;;;;4978861;28;20061;-75
2023/10/12 07:34:13;;;;;;;4.40;2.30;;;;;;;;;;4979259;28;20149;-75
2023/10/12 07:39:20;;;;;;;8.02;2.80;;;;;;;;;;4977863;28;20399;-75
2023/10/12 07:42:02;;;;;;;6.00;2.38;;;;;;;;;;4977757;28;20046;-77
2023/10/12 07:44:36;;;;;;;9.32;2.72;;;;;;;;;;4978461;28;20555;-76
2023/10/12 07:47:03;;;;;;;4.60;2.40;;;;;;;;;;4976395;28;20111;-76
2023/10/12 07:52:13;;;;;;;7.85;3.35;;;;;;;;;;4977563;28;20074;-76
2023/10/12 07:57:18;;;;;;;7.10;2.65;;;;;;;;;;4977686;28;20861;-76
2023/10/12 07:59:49;;;;;;;6.43;2.38;;;;;;;;;;4978988;28;20531;-76
2023/10/12 08:02:15;;;;;;;8.90;2.90;;;;;;;;;;4977312;28;20078;-76
2023/10/12 08:04:57;;;;;;;5.35;2.40;;;;;;;;;;4976975;28;20962;-76
2023/10/12 08:07:26;;;;;;;11.57;2.92;;;;;;;;;;4961835;28;20499;-77
2023/10/12 08:09:54;;;;;;;3.35;2.33;;;;;;;;;;4978784;28;20392;-76
2023/10/12 08:12:26;;;;;;;5.13;2.60;;;;;;;;;;4979693;28;20630;-76
2023/10/12 08:15:07;;;;;;;9.00;2.38;;;;;;;;;;4982898;28;20189;-76
2023/10/12 08:17:33;;;;;;;10.77;2.47;;;;;;;;;;4978849;28;20567;-76
2023/10/12 08:22:50;;;;;;;5.72;2.47;;;;;;;;;;4982422;28;20045;-77
2023/10/12 08:25:27;;;;;;;5.47;2.78;;;;;;;;;;4980388;28;20062;-77
2023/10/12 08:27:53;;;;;;;7.03;2.28;;;;;;;;;;4996655;28;20077;-77
2023/10/12 08:30:23;;;;;;;7.35;2.95;;;;;;;;;;4980350;28;20100;-77
2023/10/12 08:32:59;;;;;;;7.47;2.42;;;;;;;;;;4982394;28;20491;-77
2023/10/12 08:36:22;;;;;;;4.13;2.25;;;;;;;;;;4991280;28;20046;-78
2023/10/12 08:38:33;;;;;;;6.85;2.92;;;;;;;;;;4982447;28;20050;-77
2023/10/12 08:43:45;;;;;;;8.68;2.50;;;;;;;;;;4983325;28;20050;-77
2023/10/12 08:46:12;;;;;;;3.58;2.10;;;;;;;;;;4982150;28;20054;-81
2023/10/12 08:48:52;;;;;;;8.88;2.38;;;;;;;;;;4982009;28;20050;-76
2023/10/12 08:51:27;;;;;;;11.82;2.30;;;;;;;;;;4979368;28;20054;-76
2023/10/12 08:53:53;;;;;;;9.77;1.75;;;;;;;;;;4980393;28;20534;-76
2023/10/12 08:56:21;;;;;;;7.30;2.10;;;;;;;;;;4981686;28;20053;-76
2023/10/12 08:58:51;;;;;;;5.90;2.03;;;;;;;;;;4982007;28;20384;-76
2023/10/12 09:01:23;;;;;;;9.05;2.65;;;;;;;;;;4980205;28;20050;-76
2023/10/12 09:03:53;;;;;;;4.50;1.85;;;;;;;;;;4980531;28;20107;-76
2023/10/12 09:06:53;;;;;;;4.95;2.10;;;;;;;;;;4981321;28;20112;-76
2023/10/12 09:09:48;;;;;;;6.78;1.92;;;;;;;;;;4978919;28;20057;-76
2023/10/12 09:12:01;;;;;;;4.47;2.22;;;;;;;;;;4979980;28;20049;-77
2023/10/12 09:14:26;;;;;;;8.57;2.70;;;;;;;;;;4996289;28;20046;-76
2023/10/12 09:16:54;;;;;;;8.07;2.38;;;;;;;;;;4982586;28;20093;-79
2023/10/12 09:19:53;;;;;;;8.05;2.92;;;;;;;;;;4983101;28;20137;-77
2023/10/12 09:22:10;;;;;;;4.00;2.20;;;;;;;;;;4981115;28;20053;-77
2023/10/12 09:24:36;;;;;;;10.82;2.38;;;;;;;;;;4981643;28;20392;-77
2023/10/12 09:27:14;;;;;;;7.68;2.80;;;;;;;;;;4980817;28;20042;-77
2023/10/12 09:29:57;;;;;;;4.88;1.65;;;;;;;;;;4981374;28;20050;-77
2023/10/12 09:32:24;;;;;;;4.50;2.10;;;;;;;;;;4979092;28;20050;-77
2023/10/12 09:37:43;;;;;;;3.40;2.10;;;;;;;;;;4987557;28;20050;-77
2023/10/12 09:40:24;;;;;;;6.97;2.20;;;;;;;;;;4961185;28;20055;-80
2023/10/12 09:42:55;;;;;;;6.78;1.85;;;;;;;;;;4963840;28;20047;-78
2023/10/12 09:45:24;;;;;;;6.68;2.10;;;;;;;;;;4963494;28;20065;-80
2023/10/12 09:47:55;;;;;;;3.70;2.08;;;;;;;;;;4964920;28;20046;-79
2023/10/12 09:50:27;;;;;;;7.22;2.50;;;;;;;;;;4980490;28;20046;-78
2023/10/12 09:53:12;;;;;;;6.45;2.05;;;;;;;;;;4982320;28;20050;-77
2023/10/12 09:55:40;;;;;;;6.05;2.13;;;;;;;;;;4995987;28;20441;-79
2023/10/12 09:58:14;;;;;;;5.72;2.00;;;;;;;;;;4984660;28;20050;-78
2023/10/12 10:03:37;;;;;;;4.38;2.38;;;;;;;;;;4992884;28;20052;-74
2023/10/12 10:06:19;;;;;;;8.95;2.22;;;;;;;;;;4980038;28;20419;-77
2023/10/12 10:08:45;;;;;;;4.93;2.13;;;;;;;;;;4978721;28;20057;-76
2023/10/12 10:11:12;;;;;;;5.72;2.08;;;;;;;;;;4979603;28;20108;-76
2023/10/12 10:13:47;;;;;;;12.18;2.10;;;;;;;;;;4980552;28;20050;-75
2023/10/12 10:16:19;;;;;;;7.35;2.30;;;;;;;;;;4978911;28;20050;-75
2023/10/12 10:19:13;;;;;;;10.07;2.60;;;;;;;;;;4979935;28;20050;-76
2023/10/12 10:21:49;;;;;;;5.15;2.05;;;;;;;;;;4991508;28;20057;-74
2023/10/12 10:24:19;;;;;;;3.60;2.13;;;;;;;;;;4962412;28;20199;-74
2023/10/12 10:26:47;;;;;;;4.25;2.05;;;;;;;;;;4978940;28;20077;-75
2023/10/12 10:29:17;;;;;;;6.00;2.28;;;;;;;;;;4977505;28;20066;-75
2023/10/12 10:31:44;;;;;;;8.65;2.10;;;;;;;;;;4978243;28;21358;-75
2023/10/12 10:34:23;;;;;;;7.43;2.65;;;;;;;;;;4978157;28;20069;-75
2023/10/12 10:36:52;;;;;;;5.80;2.10;;;;;;;;;;4978185;28;20042;-75
2023/10/12 10:41:46;;;;;;;3.13;1.80;;;;;;;;;;4979879;28;20046;-75
2023/10/12 10:44:16;;;;;;;5.22;2.22;;;;;;;;;;4977894;28;20153;-74
2023/10/12 10:46:54;;;;;;;7.43;2.10;;;;;;;;;;4978187;28;20046;-74
2023/10/12 10:49:20;;;;;;;9.60;2.33;;;;;;;;;;4976475;28;20046;-75
2023/10/12 10:51:48;;;;;;;4.88;2.30;;;;;;;;;;4984742;28;20081;-75
2023/10/12 10:54:20;;;;;;;10.73;2.78;;;;;;;;;;4985621;28;20046;-75
2023/10/12 10:56:47;;;;;;;3.28;1.92;;;;;;;;;;4981367;28;20053;-75
2023/10/12 10:59:13;;;;;;;13.38;2.35;;;;;;;;;;4978764;28;20128;-74
2023/10/12 11:01:46;;;;;;;4.10;2.33;;;;;;;;;;4979577;28;20687;-75
2023/10/12 11:04:18;;;;;;;5.28;2.22;;;;;;;;;;4980324;28;20046;-74
2023/10/12 11:06:47;;;;;;;5.35;2.40;;;;;;;;;;4981052;28;20080;-77
2023/10/12 11:09:15;;;;;;;2.72;2.05;;;;;;;;;;4978926;28;20042;-75
2023/10/12 11:11:53;;;;;;;10.95;2.40;;;;;;;;;;4979245;28;20558;-75
2023/10/12 11:14:22;;;;;;;7.65;2.53;;;;;;;;;;4979795;28;20054;-73
2023/10/12 11:16:48;;;;;;;3.67;1.95;;;;;;;;;;4978347;28;20042;-75
2023/10/12 11:19:19;;;;;;;3.50;2.28;;;;;;;;;;4978379;28;20069;-77
2023/10/12 11:21:57;;;;;;;6.90;2.30;;;;;;;;;;4980460;28;20046;-77
2023/10/12 11:24:24;;;;;;;4.65;2.45;;;;;;;;;;4978289;28;20057;-74
2023/10/12 11:26:57;;;;;;;5.22;1.98;;;;;;;;;;4979096;28;20050;-77
2023/10/12 11:29:24;;;;;;;4.45;1.67;;;;;;;;;;4977923;28;20528;-76
2023/10/12 11:32:09;;;;;;;6.35;2.10;;;;;;;;;;4978500;28;20522;-76
2023/10/12 11:34:38;;;;;;;8.57;2.20;;;;;;;;;;4971578;28;20038;-77
2023/10/12 11:37:04;;;;;;;3.22;1.80;;;;;;;;;;4992295;28;20149;-76
2023/10/12 11:39:40;;;;;;;4.65;2.42;;;;;;;;;;4991537;28;20480;-77
2023/10/12 11:42:07;;;;;;;5.53;1.88;;;;;;;;;;4978341;28;20053;-74
2023/10/12 11:44:36;;;;;;;3.72;2.05;;;;;;;;;;4983620;28;20081;-74
2023/10/12 11:47:07;;;;;;;5.75;2.20;;;;;;;;;;4977833;28;20129;-75
2023/10/12 11:49:57;;;;;;;4.18;2.10;;;;;;;;;;4980219;28;20050;-75
2023/10/12 11:52:32;;;;;;;4.43;1.95;;;;;;;;;;4981061;28;20426;-70
2023/10/12 11:55:06;;;;;;;5.03;2.15;;;;;;;;;;4982348;28;20062;-76
2023/10/12 11:57:32;;;;;;;4.82;2.30;;;;;;;;;;4979782;28;20069;-76
2023/10/12 11:59:58;;;;;;;6.05;2.28;;;;;;;;;;4981879;28;20045;-75
2023/10/12 12:02:24;;;;;;;5.90;2.55;;;;;;;;;;4981346;28;20106;-75
2023/10/12 12:04:51;;;;;;;2.70;1.90;;;;;;;;;;4983136;28;20140;-76
2023/10/12 12:07:16;;;;;;;10.98;1.92;;;;;;;;;;4979601;28;20054;-74
2023/10/12 12:09:48;;;;;;;3.00;2.10;;;;;;;;;;4980048;28;20112;-76
2023/10/12 12:12:16;;;;;;;4.50;2.42;;;;;;;;;;4981378;28;20153;-76
2023/10/12 12:14:47;;;;;;;7.45;2.40;;;;;;;;;;4980724;28;20511;-76
2023/10/12 12:17:16;;;;;;;6.32;2.33;;;;;;;;;;4984120;28;20133;-76
2023/10/12 12:19:42;;;;;;;3.63;2.17;;;;;;;;;;4967301;28;20038;-75
2023/10/12 12:22:11;;;;;;;4.53;2.28;;;;;;;;;;4980971;28;20046;-75
2023/10/12 12:24:37;;;;;;;4.88;2.08;;;;;;;;;;4979953;28;20080;-75
2023/10/12 12:27:05;;;;;;;5.57;2.45;;;;;;;;;;4979841;28;20459;-76
2023/10/12 12:29:31;;;;;;;7.03;2.08;;;;;;;;;;4977640;28;20070;-76
2023/10/12 12:32:03;;;;;;;6.00;2.25;;;;;;;;;;4979315;28;20040;-75
2023/10/12 12:34:38;;;;;;;2.90;2.20;;;;;;;;;;4980379;28;20495;-75
2023/10/12 12:37:06;;;;;;;3.70;2.35;;;;;;;;;;4977847;28;20046;-75
2023/10/12 12:39:34;;;;;;;4.97;2.08;;;;;;;;;;4977603;28;20050;-74
2023/10/12 12:42:03;;;;;;;8.02;2.22;;;;;;;;;;4979722;28;20053;-74
2023/10/12 12:44:30;;;;;;;3.65;1.77;;;;;;;;;;4979739;28;20054;-74
2023/10/12 12:46:56;;;;;;;3.10;1.80;;;;;;;;;;4978216;28;20096;-74
2023/10/12 12:49:24;;;;;;;5.30;2.22;;;;;;;;;;4979609;28;20065;-75
2023/10/12 12:51:50;;;;;;;8.73;2.20;;;;;;;;;;4979365;28;20092;-76
2023/10/12 12:54:15;;;;;;;5.30;1.98;;;;;;;;;;4980288;28;20070;-75
2023/10/12 12:56:42;;;;;;;10.43;2.50;;;;;;;;;;4980313;28;20070;-74
2023/10/12 12:59:10;;;;;;;2.78;1.88;;;;;;;;;;4977339;28;20113;-75
2023/10/12 13:01:38;;;;;;;5.70;2.03;;;;;;;;;;4979746;28;20161;-75
2023/10/12 13:04:04;;;;;;;4.15;2.03;;;;;;;;;;4979642;28;20100;-74
2023/10/12 13:06:33;;;;;;;4.78;2.00;;;;;;;;;;4978573;28;20062;-75
2023/10/12 13:09:01;;;;;;;2.58;1.70;;;;;;;;;;4978609;28;20133;-74
2023/10/12 13:11:27;;;;;;;8.18;2.10;;;;;;;;;;4978919;28;20166;-75
2023/10/12 13:13:52;;;;;;;5.57;2.28;;;;;;;;;;4978701;28;20042;-75
2023/10/12 13:16:17;;;;;;;4.70;1.95;;;;;;;;;;4980073;28;20054;-76
2023/10/12 13:18:46;;;;;;;7.50;2.22;;;;;;;;;;4980696;28;20046;-76
2023/10/12 13:21:14;;;;;;;4.95;2.17;;;;;;;;;;4979761;28;20097;-77
2023/10/12 13:23:40;;;;;;;4.30;2.25;;;;;;;;;;4978481;28;20654;-77
2023/10/12 13:26:07;;;;;;;8.48;2.72;;;;;;;;;;4979666;28;20584;-76
2023/10/12 13:28:33;;;;;;;8.43;2.70;;;;;;;;;;4977922;28;20058;-77
2023/10/12 13:30:58;;;;;;;3.58;1.98;;;;;;;;;;4976823;28;20399;-77
2023/10/12 13:33:27;;;;;;;6.50;2.30;;;;;;;;;;4977325;28;20055;-77
2023/10/12 13:35:55;;;;;;;6.25;1.83;;;;;;;;;;4978339;28;20128;-77
2023/10/12 13:38:21;;;;;;;4.68;2.08;;;;;;;;;;4976699;28;20049;-77
2023/10/12 13:40:48;;;;;;;4.03;1.98;;;;;;;;;;4978747;28;20073;-77
2023/10/12 13:43:14;;;;;;;3.80;1.83;;;;;;;;;;4978432;28;20133;-74
2023/10/12 13:45:47;;;;;;;3.28;1.92;;;;;;;;;;4977126;28;20205;-75
2023/10/12 13:48:24;;;;;;;5.95;1.60;;;;;;;;;;4978601;28;20039;-75
2023/10/12 13:50:51;;;;;;;4.60;2.33;;;;;;;;;;4977524;28;20140;-75
2023/10/12 13:53:19;;;;;;;6.45;2.17;;;;;;;;;;4978425;28;20046;-74
2023/10/12 13:55:47;;;;;;;5.82;2.28;;;;;;;;;;4978913;28;20160;-75
2023/10/12 13:58:14;;;;;;;5.88;2.10;;;;;;;;;;4977944;28;20052;-75
2023/10/12 14:00:39;;;;;;;12.18;2.38;;;;;;;;;;4978477;28;20054;-74
2023/10/12 14:03:11;;;;;;;7.78;2.30;;;;;;;;;;4978431;28;20279;-75
2023/10/12 14:05:42;;;;;;;;;;;;;;;;;;4977926;28;20985;-75
2023/10/12 14:08:08;;;;;;;;;;;;;;;;;;4978412;28;20509;-75
2023/10/12 14:10:40;;;;;;;4.00;2.15;;;;;;;;;;4976282;28;19918;-75
2023/10/12 14:13:06;;;;;;;3.78;2.28;;;;;;;;;;4977978;28;20300;-75
2023/10/12 14:15:35;;;;;;;5.07;2.10;;;;;;;;;;4977539;28;20542;-75
2023/10/12 14:18:02;;;;;;;3.55;1.80;;;;;;;;;;4978173;28;20138;-77
2023/10/12 14:20:28;;;;;;;5.88;2.03;;;;;;;;;;4978180;28;20054;-77
2023/10/12 14:22:58;;;;;;;5.97;2.30;;;;;;;;;;4978570;28;20042;-77
2023/10/12 14:25:30;;;;;;;5.65;2.33;;;;;;;;;;4961148;28;20057;-76
2023/10/12 14:27:59;;;;;;;7.78;2.25;;;;;;;;;;4978140;28;20593;-76
2023/10/12 14:30:29;;;;;;;4.97;1.90;;;;;;;;;;4977318;28;20073;-77
2023/10/12 14:33:02;;;;;;;7.03;2.00;;;;;;;;;;4979000;28;20054;-76
2023/10/12 14:35:35;;;;;;;6.35;2.33;;;;;;;;;;4991333;28;20046;-77
2023/10/12 14:38:06;;;;;;;4.53;1.90;;;;;;;;;;4978401;28;20043;-77
2023/10/12 14:40:32;;;;;;;;;;;;;;;;;;4976994;28;20058;-77
2023/10/12 14:43:07;;;;;;;8.23;2.13;;;;;;;;;;4977976;28;19922;-77
2023/10/12 14:45:36;;;;;;;5.95;2.20;;;;;;;;;;4977664;28;20089;-76
2023/10/12 14:48:11;;;;;;;4.50;2.10;;;;;;;;;;4978550;28;20365;-76
2023/10/12 14:50:38;;;;;;;5.32;2.08;;;;;;;;;;4977945;28;20708;-76
2023/10/12 14:53:09;;;;;;;4.03;2.00;;;;;;;;;;4975818;28;20688;-77
2023/10/12 14:55:35;;;;;;;5.75;2.42;;;;;;;;;;4976329;28;20057;-76
2023/10/12 14:58:02;;;;;;;4.57;1.95;;;;;;;;;;4977122;28;20054;-76
2023/10/12 15:00:30;;;;;;;8.50;2.53;;;;;;;;;;4976226;28;20067;-76
2023/10/12 15:02:57;;;;;;;2.75;1.80;;;;;;;;;;4977906;28;20112;-75
2023/10/12 15:05:31;;;;;;;4.75;2.33;;;;;;;;;;4956352;28;20496;-75
2023/10/12 15:07:56;;;;;;;3.20;2.10;;;;;;;;;;4974916;28;20074;-76
2023/10/12 15:10:23;;;;;;;5.57;2.20;;;;;;;;;;4976292;28;20137;-76
2023/10/12 15:12:50;;;;;;;3.80;2.00;;;;;;;;;;4976979;28;20038;-77
2023/10/12 15:15:20;;;;;;;3.20;2.05;;;;;;;;;;4973356;28;20077;-77
2023/10/12 15:17:46;;;;;;;3.42;2.30;;;;;;;;;;4974635;28;20066;-78
2023/10/12 15:20:16;;;;;;;11.98;2.42;;;;;;;;;;4975155;28;20046;-77
2023/10/12 15:22:44;;;;;;;9.45;2.60;;;;;;;;;;4975632;28;20062;-77
2023/10/12 15:25:15;;;;;;;5.47;1.83;;;;;;;;;;4972007;28;20050;-77
2023/10/12 15:27:40;;;;;;;9.45;2.38;;;;;;;;;;4976302;28;21185;-76
2023/10/12 15:30:10;;;;;;;5.78;1.98;;;;;;;;;;4977441;28;20062;-76
2023/10/12 15:32:41;;;;;;;4.03;2.15;;;;;;;;;;4975707;28;20609;-76
2023/10/12 15:35:23;;;;;;;7.30;2.10;;;;;;;;;;4977002;28;20057;-75
2023/10/12 15:37:50;;;;;;;3.53;2.00;;;;;;;;;;4976860;28;20042;-75
2023/10/12 15:40:25;;;;;;;10.00;1.90;;;;;;;;;;4977024;28;20054;-75
2023/10/12 15:42:52;;;;;;;8.55;2.67;;;;;;;;;;4977950;28;21327;-75
2023/10/12 15:45:20;;;;;;;9.70;2.55;;;;;;;;;;4974802;28;20049;-74
2023/10/12 15:47:47;;;;;;;5.15;2.30;;;;;;;;;;4974962;28;20096;-75
2023/10/12 15:50:14;;;;;;;5.50;2.17;;;;;;;;;;4977388;28;20051;-76
2023/10/12 15:52:42;;;;;;;6.72;2.38;;;;;;;;;;4976902;28;20054;-77
2023/10/12 15:55:08;;;;;;;3.55;2.50;;;;;;;;;;4976751;28;20487;-75
2023/10/12 15:57:34;;;;;;;9.73;2.20;;;;;;;;;;4974791;28;20061;-77
2023/10/12 15:59:59;;;;;;;3.42;2.50;;;;;;;;;;4977202;28;20064;-75
2023/10/12 16:02:29;;;;;;;6.95;2.50;;;;;;;;;;4976145;28;20042;-77
2023/10/12 16:04:55;;;;;;;4.85;2.22;;;;;;;;;;4960623;28;20121;-76
2023/10/12 16:07:21;;;;;;;5.95;2.28;;;;;;;;;;4977064;28;20522;-76
2023/10/12 16:09:46;;;;;;;7.05;2.13;;;;;;;;;;4975220;28;20510;-76
2023/10/12 16:12:19;;;;;;;4.13;2.15;;;;;;;;;;4978873;28;20054;-76
2023/10/12 16:14:50;;;;;;;6.80;2.63;;;;;;;;;;4978367;28;20520;-76
2023/10/12 16:17:17;;;;;;;8.05;2.53;;;;;;;;;;4977409;28;20073;-76
2023/10/12 16:19:43;;;;;;;3.47;2.08;;;;;;;;;;4976879;28;20046;-75
2023/10/12 16:22:09;;;;;;;3.58;2.15;;;;;;;;;;4979545;28;20065;-76
2023/10/12 16:24:35;;;;;;;8.20;2.70;;;;;;;;;;4977846;28;20050;-75
2023/10/12 16:27:03;;;;;;;5.93;2.08;;;;;;;;;;4977853;28;20542;-75
2023/10/12 16:29:30;;;;;;;8.77;2.20;;;;;;;;;;4977605;28;20530;-75
2023/10/12 16:31:58;;;;;;;5.57;2.53;;;;;;;;;;4976415;28;20043;-75
2023/10/12 16:34:24;;;;;;;7.78;1.95;;;;;;;;;;4980953;28;20050;-74
2023/10/12 16:36:50;;;;;;;4.40;1.90;;;;;;;;;;4980855;28;20492;-75
2023/10/12 16:39:16;;;;;;;3.85;2.17;;;;;;;;;;4979412;28;20096;-74
2023/10/12 16:41:42;;;;;;;8.43;2.50;;;;;;;;;;4991748;28;20138;-75
2023/10/12 16:44:08;;;;;;;4.30;2.10;;;;;;;;;;4981693;28;20136;-74
2023/10/12 16:46:34;;;;;;;5.80;2.08;;;;;;;;;;4980097;28;20142;-75
2023/10/12 16:49:00;;;;;;;6.93;2.17;;;;;;;;;;4980163;28;20637;-76
2023/10/12 16:51:26;;;;;;;11.25;2.85;;;;;;;;;;4979896;28;20054;-73
2023/10/12 16:53:51;;;;;;;5.05;2.22;;;;;;;;;;4980152;28;20038;-75